createdAt,value
2022-09-04T00:00:35.878Z,17.44
2022-09-04T00:01:35.874Z,17.43
2022-09-04T00:02:35.888Z,17.43
2022-09-04T00:03:35.934Z,17.38
2022-09-04T00:04:35.878Z,17.31
2022-09-04T00:05:35.838Z,17.26
2022-09-04T00:06:35.803Z,17.22
2022-09-04T00:07:35.845Z,17.18
2022-09-04T00:08:35.810Z,17.12
2022-09-04T00:09:35.795Z,17.08
2022-09-04T00:10:35.750Z,17.11
2022-09-04T00:11:35.756Z,17.11
2022-09-04T00:12:35.729Z,17.07
2022-09-04T00:13:35.755Z,17.06
2022-09-04T00:14:35.719Z,17.04
2022-09-04T00:15:35.679Z,17.08
2022-09-04T00:16:35.723Z,17.11
2022-09-04T00:17:35.660Z,17.15
2022-09-04T00:18:35.675Z,17.16
2022-09-04T00:19:35.759Z,17.21
2022-09-04T00:20:35.617Z,17.25
2022-09-04T00:21:35.606Z,17.30
2022-09-04T00:22:35.580Z,17.30
2022-09-04T00:23:35.579Z,17.26
2022-09-04T00:24:35.595Z,17.26
2022-09-04T00:25:36.038Z,17.25
2022-09-04T00:26:35.528Z,17.22
2022-09-04T00:27:36.016Z,17.21
2022-09-04T00:28:35.511Z,17.22
2022-09-04T00:29:35.532Z,17.22
2022-09-04T00:30:35.619Z,17.25
2022-09-04T00:31:35.495Z,17.28
2022-09-04T00:32:35.501Z,17.28
2022-09-04T00:33:35.444Z,17.31
2022-09-04T00:34:35.441Z,17.31
2022-09-04T00:35:35.447Z,17.30
2022-09-04T00:36:35.412Z,17.25
2022-09-04T00:37:35.414Z,17.23
2022-09-04T00:38:35.395Z,17.18
2022-09-04T00:39:35.438Z,17.12
2022-09-04T00:40:35.360Z,17.07
2022-09-04T00:41:35.339Z,17.06
2022-09-04T00:42:35.320Z,17.06
2022-09-04T00:43:35.325Z,17.08
2022-09-04T00:44:35.367Z,17.11
2022-09-04T00:45:35.330Z,17.12
2022-09-04T00:46:35.289Z,17.16
2022-09-04T00:47:35.256Z,17.16
2022-09-04T00:48:35.237Z,17.16
2022-09-04T00:49:35.297Z,17.15
2022-09-04T00:50:35.211Z,17.11
2022-09-04T00:51:35.227Z,17.07
2022-09-04T00:52:36.727Z,17.04
2022-09-04T00:53:35.193Z,17.00
2022-09-04T00:54:35.164Z,16.98
2022-09-04T00:55:35.160Z,16.93
2022-09-04T00:56:35.143Z,16.86
2022-09-04T00:57:35.151Z,16.82
2022-09-04T00:58:35.102Z,16.78
2022-09-04T00:59:35.100Z,16.73
2022-09-04T01:00:35.090Z,16.70
2022-09-04T01:01:36.729Z,16.68
2022-09-04T01:02:35.176Z,16.66
2022-09-04T01:03:35.051Z,16.68
2022-09-04T01:04:35.138Z,16.71
2022-09-04T01:05:35.025Z,16.78
2022-09-04T01:06:35.034Z,16.82
2022-09-04T01:07:35.012Z,16.83
2022-09-04T01:08:34.981Z,16.83
2022-09-04T01:09:34.953Z,16.86
2022-09-04T01:10:34.945Z,16.88
2022-09-04T01:11:34.961Z,16.85
2022-09-04T01:12:34.948Z,16.83
2022-09-04T01:13:35.262Z,16.82
2022-09-04T01:14:34.895Z,16.83
2022-09-04T01:15:34.878Z,16.86
2022-09-04T01:16:34.947Z,16.86
2022-09-04T01:17:35.012Z,16.86
2022-09-04T01:18:34.853Z,16.85
2022-09-04T01:19:34.855Z,16.83
2022-09-04T01:20:34.812Z,16.81
2022-09-04T01:21:34.796Z,16.78
2022-09-04T01:22:34.803Z,16.75
2022-09-04T01:23:34.958Z,16.73
2022-09-04T01:24:34.780Z,16.71
2022-09-04T01:25:34.754Z,16.75
2022-09-04T01:26:34.731Z,16.79
2022-09-04T01:27:34.737Z,16.83
2022-09-04T01:28:34.711Z,16.86
2022-09-04T01:29:34.719Z,16.86
2022-09-04T01:30:34.707Z,16.85
2022-09-04T01:31:34.687Z,16.81
2022-09-04T01:32:34.640Z,16.79
2022-09-04T01:33:34.654Z,16.75
2022-09-04T01:34:34.662Z,16.68
2022-09-04T01:35:34.618Z,16.66
2022-09-04T01:36:34.598Z,16.63
2022-09-04T01:37:34.603Z,16.61
2022-09-04T01:38:34.578Z,16.61
2022-09-04T01:39:34.587Z,16.61
2022-09-04T01:40:35.749Z,16.63
2022-09-04T01:41:38.368Z,16.60
2022-09-04T01:42:34.518Z,16.60
2022-09-04T01:43:34.579Z,16.57
2022-09-04T01:44:34.518Z,16.50
2022-09-04T01:45:34.524Z,16.46
2022-09-04T01:46:34.485Z,16.38
2022-09-04T01:47:34.476Z,16.27
2022-09-04T01:48:34.600Z,16.21
2022-09-04T01:49:34.451Z,16.17
2022-09-04T01:50:34.417Z,16.12
2022-09-04T01:51:34.397Z,16.08
2022-09-04T01:52:34.396Z,16.07
2022-09-04T01:53:34.400Z,16.11
2022-09-04T01:54:34.537Z,16.08
2022-09-04T01:55:34.360Z,16.09
2022-09-04T01:56:34.477Z,16.12
2022-09-04T01:57:34.441Z,16.20
2022-09-04T01:58:34.320Z,16.25
2022-09-04T01:59:34.329Z,16.28
2022-09-04T02:00:34.311Z,16.31
2022-09-04T02:01:34.333Z,16.34
2022-09-04T02:02:34.316Z,16.35
2022-09-04T02:03:34.289Z,16.38
2022-09-04T02:04:34.231Z,16.39
2022-09-04T02:05:34.228Z,16.42
2022-09-04T02:06:34.208Z,16.43
2022-09-04T02:07:34.209Z,16.45
2022-09-04T02:08:34.203Z,16.39
2022-09-04T02:09:34.163Z,16.34
2022-09-04T02:10:34.171Z,16.31
2022-09-04T02:11:34.132Z,16.31
2022-09-04T02:12:34.164Z,16.28
2022-09-04T02:13:34.117Z,16.24
2022-09-04T02:14:34.114Z,16.20
2022-09-04T02:15:34.082Z,16.14
2022-09-04T02:16:34.187Z,16.14
2022-09-04T02:17:34.123Z,16.15
2022-09-04T02:18:34.032Z,16.21
2022-09-04T02:19:34.029Z,16.24
2022-09-04T02:20:34.020Z,16.21
2022-09-04T02:21:34.007Z,16.17
2022-09-04T02:22:34.026Z,16.14
2022-09-04T02:23:33.982Z,16.12
2022-09-04T02:24:33.955Z,16.09
2022-09-04T02:25:33.950Z,16.05
2022-09-04T02:26:34.001Z,16.04
2022-09-04T02:27:33.953Z,16.04
2022-09-04T02:28:33.913Z,16.02
2022-09-04T02:29:33.913Z,16.02
2022-09-04T02:30:33.919Z,16.01
2022-09-04T02:31:33.922Z,16.02
2022-09-04T02:32:33.864Z,16.04
2022-09-04T02:33:33.979Z,16.05
2022-09-04T02:34:34.565Z,16.11
2022-09-04T02:35:33.834Z,16.09
2022-09-04T02:36:33.801Z,16.11
2022-09-04T02:37:33.827Z,16.14
2022-09-04T02:38:33.764Z,16.15
2022-09-04T02:39:33.770Z,16.15
2022-09-04T02:40:33.757Z,16.17
2022-09-04T02:41:33.759Z,16.15
2022-09-04T02:42:33.766Z,16.15
2022-09-04T02:43:34.581Z,16.17
2022-09-04T02:44:33.702Z,16.14
2022-09-04T02:45:33.689Z,16.14
2022-09-04T02:46:33.755Z,16.11
2022-09-04T02:47:33.668Z,16.09
2022-09-04T02:48:33.678Z,16.04
2022-09-04T02:49:33.620Z,15.97
2022-09-04T02:50:33.637Z,15.87
2022-09-04T02:51:39.490Z,15.78
2022-09-04T02:52:41.001Z,15.72
2022-09-04T02:53:33.583Z,15.64
2022-09-04T02:54:33.585Z,15.56
2022-09-04T02:55:33.707Z,15.51
2022-09-04T02:56:33.546Z,15.46
2022-09-04T02:57:33.517Z,15.34
2022-09-04T02:58:33.524Z,15.21
2022-09-04T02:59:33.486Z,15.09
2022-09-04T03:00:33.518Z,15.01
2022-09-04T03:01:33.489Z,14.95
2022-09-04T03:02:33.499Z,14.88
2022-09-04T03:03:33.537Z,14.83
2022-09-04T03:04:33.439Z,14.86
2022-09-04T03:05:33.417Z,14.92
2022-09-04T03:06:33.449Z,15.01
2022-09-04T03:07:33.393Z,15.07
2022-09-04T03:08:36.414Z,15.14
2022-09-04T03:09:33.364Z,15.20
2022-09-04T03:10:33.340Z,15.31
2022-09-04T03:11:34.017Z,15.39
2022-09-04T03:12:33.324Z,15.47
2022-09-04T03:13:33.302Z,15.53
2022-09-04T03:14:33.294Z,15.57
2022-09-04T03:15:33.301Z,15.59
2022-09-04T03:16:33.391Z,15.60
2022-09-04T03:17:33.271Z,15.62
2022-09-04T03:18:33.279Z,15.64
2022-09-04T03:19:33.233Z,15.67
2022-09-04T03:20:33.210Z,15.67
2022-09-04T03:21:33.246Z,15.68
2022-09-04T03:22:33.207Z,15.68
2022-09-04T03:23:33.176Z,15.68
2022-09-04T03:24:33.179Z,15.67
2022-09-04T03:25:33.148Z,15.62
2022-09-04T03:26:33.193Z,15.62
2022-09-04T03:27:33.148Z,15.60
2022-09-04T03:28:33.126Z,15.59
2022-09-04T03:29:33.105Z,15.54
2022-09-04T03:30:33.073Z,15.53
2022-09-04T03:31:33.115Z,15.50
2022-09-04T03:32:33.089Z,15.49
2022-09-04T03:33:33.036Z,15.50
2022-09-04T03:34:33.053Z,15.53
2022-09-04T03:35:33.033Z,15.54
2022-09-04T03:36:33.038Z,15.56
2022-09-04T03:37:33.015Z,15.56
2022-09-04T03:38:32.997Z,15.54
2022-09-04T03:39:33.042Z,15.53
2022-09-04T03:40:32.944Z,15.47
2022-09-04T03:41:33.012Z,15.46
2022-09-04T03:42:32.927Z,15.46
2022-09-04T03:43:32.919Z,15.47
2022-09-04T03:44:32.897Z,15.47
2022-09-04T03:45:32.909Z,15.50
2022-09-04T03:46:32.953Z,15.53
2022-09-04T03:47:32.875Z,15.54
2022-09-04T03:48:32.868Z,15.56
2022-09-04T03:49:32.878Z,15.57
2022-09-04T03:50:32.833Z,15.59
2022-09-04T03:51:32.836Z,15.60
2022-09-04T03:52:32.797Z,15.62
2022-09-04T03:53:32.778Z,15.64
2022-09-04T03:54:32.891Z,15.64
2022-09-04T03:55:32.756Z,15.67
2022-09-04T03:56:32.756Z,15.67
2022-09-04T03:57:32.722Z,15.65
2022-09-04T03:58:32.720Z,15.67
2022-09-04T03:59:32.718Z,15.67
2022-09-04T04:00:32.746Z,15.67
2022-09-04T04:01:32.695Z,15.68
2022-09-04T04:02:32.704Z,15.69
2022-09-04T04:03:32.657Z,15.71
2022-09-04T04:04:32.657Z,15.72
2022-09-04T04:05:32.618Z,15.78
2022-09-04T04:06:32.962Z,15.82
2022-09-04T04:07:32.628Z,15.83
2022-09-04T04:08:32.582Z,15.86
2022-09-04T04:09:32.619Z,15.86
2022-09-04T04:10:32.574Z,15.84
2022-09-04T04:11:32.557Z,15.76
2022-09-04T04:12:32.585Z,15.72
2022-09-04T04:13:32.520Z,15.57
2022-09-04T04:14:32.536Z,15.44
2022-09-04T04:15:33.040Z,15.35
2022-09-04T04:16:32.540Z,15.32
2022-09-04T04:17:32.476Z,15.29
2022-09-04T04:18:32.438Z,15.25
2022-09-04T04:19:32.448Z,15.25
2022-09-04T04:20:32.437Z,15.25
2022-09-04T04:21:32.426Z,15.28
2022-09-04T04:22:32.413Z,15.29
2022-09-04T04:23:32.372Z,15.34
2022-09-04T04:24:32.381Z,15.38
2022-09-04T04:25:32.365Z,15.39
2022-09-04T04:26:32.348Z,15.43
2022-09-04T04:27:32.346Z,15.43
2022-09-04T04:28:32.307Z,15.43
2022-09-04T04:29:32.372Z,15.46
2022-09-04T04:30:32.311Z,15.47
2022-09-04T04:31:32.368Z,15.50
2022-09-04T04:32:32.270Z,15.53
2022-09-04T04:33:32.362Z,15.56
2022-09-04T04:34:32.255Z,15.57
2022-09-04T04:35:32.238Z,15.59
2022-09-04T04:36:32.246Z,15.60
2022-09-04T04:37:32.215Z,15.60
2022-09-04T04:38:32.193Z,15.64
2022-09-04T04:39:32.188Z,15.65
2022-09-04T04:40:32.181Z,15.68
2022-09-04T04:41:32.185Z,15.69
2022-09-04T04:42:32.151Z,15.69
2022-09-04T04:43:32.158Z,15.71
2022-09-04T04:44:32.108Z,15.71
2022-09-04T04:45:32.196Z,15.72
2022-09-04T04:46:32.170Z,15.72
2022-09-04T04:47:32.164Z,15.69
2022-09-04T04:48:32.048Z,15.67
2022-09-04T04:49:32.040Z,15.64
2022-09-04T04:50:32.633Z,15.64
2022-09-04T04:51:32.035Z,15.64
2022-09-04T04:52:32.078Z,15.65
2022-09-04T04:53:31.982Z,15.65
2022-09-04T04:54:31.971Z,15.68
2022-09-04T04:55:31.942Z,15.71
2022-09-04T04:56:31.955Z,15.72
2022-09-04T04:57:31.988Z,15.74
2022-09-04T04:58:31.920Z,15.75
2022-09-04T04:59:31.908Z,15.78
2022-09-04T05:00:31.911Z,15.82
2022-09-04T05:01:32.056Z,15.78
2022-09-04T05:02:31.993Z,15.78
2022-09-04T05:03:32.220Z,15.80
2022-09-04T05:04:31.862Z,15.80
2022-09-04T05:05:31.822Z,15.76
2022-09-04T05:06:31.823Z,15.75
2022-09-04T05:07:31.808Z,15.74
2022-09-04T05:08:31.820Z,15.71
2022-09-04T05:09:31.785Z,15.71
2022-09-04T05:10:31.768Z,15.71
2022-09-04T05:11:31.744Z,15.71
2022-09-04T05:12:31.768Z,15.69
2022-09-04T05:13:31.721Z,15.68
2022-09-04T05:14:31.724Z,15.67
2022-09-04T05:15:31.682Z,15.68
2022-09-04T05:16:31.773Z,15.68
2022-09-04T05:17:31.676Z,15.71
2022-09-04T05:18:31.670Z,15.72
2022-09-04T05:19:31.658Z,15.74
2022-09-04T05:20:31.637Z,15.74
2022-09-04T05:21:31.603Z,15.74
2022-09-04T05:22:34.348Z,15.74
2022-09-04T05:23:31.597Z,15.78
2022-09-04T05:24:31.613Z,15.78
2022-09-04T05:25:31.570Z,15.78
2022-09-04T05:26:31.543Z,15.78
2022-09-04T05:27:31.527Z,15.78
2022-09-04T05:28:31.551Z,15.80
2022-09-04T05:29:32.700Z,15.82
2022-09-04T05:30:31.528Z,15.80
2022-09-04T05:31:32.542Z,15.80
2022-09-04T05:32:31.498Z,15.80
2022-09-04T05:33:31.458Z,15.80
2022-09-04T05:34:31.506Z,15.78
2022-09-04T05:35:35.367Z,15.76
2022-09-04T05:36:31.435Z,15.76
2022-09-04T05:37:31.430Z,15.75
2022-09-04T05:38:31.463Z,15.76
2022-09-04T05:39:31.417Z,15.78
2022-09-04T05:40:31.391Z,15.76
2022-09-04T05:41:31.348Z,15.78
2022-09-04T05:42:31.343Z,15.84
2022-09-04T05:43:31.330Z,15.89
2022-09-04T05:44:31.366Z,15.90
2022-09-04T05:45:31.575Z,15.96
2022-09-04T05:46:31.321Z,15.96
2022-09-04T05:47:31.288Z,16.01
2022-09-04T05:48:31.244Z,16.02
2022-09-04T05:49:31.232Z,16.05
2022-09-04T05:50:31.240Z,16.09
2022-09-04T05:51:31.288Z,16.12
2022-09-04T05:52:31.231Z,16.20
2022-09-04T05:53:31.202Z,16.24
2022-09-04T05:54:31.182Z,16.24
2022-09-04T05:55:31.161Z,16.24
2022-09-04T05:56:31.402Z,16.23
2022-09-04T05:57:31.117Z,16.23
2022-09-04T05:58:31.125Z,16.24
2022-09-04T05:59:31.110Z,16.25
2022-09-04T06:00:31.084Z,16.28
2022-09-04T06:01:31.151Z,16.28
2022-09-04T06:02:31.122Z,16.30
2022-09-04T06:03:31.092Z,16.31
2022-09-04T06:04:31.064Z,16.33
2022-09-04T06:05:31.034Z,16.34
2022-09-04T06:06:31.017Z,16.38
2022-09-04T06:07:31.047Z,16.41
2022-09-04T06:08:31.109Z,16.39
2022-09-04T06:09:30.994Z,16.41
2022-09-04T06:10:30.999Z,16.43
2022-09-04T06:11:30.949Z,16.46
2022-09-04T06:12:30.943Z,16.50
2022-09-04T06:13:30.986Z,16.52
2022-09-04T06:14:30.927Z,16.56
2022-09-04T06:15:30.888Z,16.57
2022-09-04T06:16:30.957Z,16.57
2022-09-04T06:17:30.855Z,16.58
2022-09-04T06:18:30.867Z,16.58
2022-09-04T06:19:30.880Z,16.61
2022-09-04T06:20:30.844Z,16.63
2022-09-04T06:21:30.812Z,16.63
2022-09-04T06:22:30.794Z,16.66
2022-09-04T06:23:30.825Z,16.67
2022-09-04T06:24:30.794Z,16.70
2022-09-04T06:25:30.770Z,16.76
2022-09-04T06:26:30.770Z,16.78
2022-09-04T06:27:30.780Z,16.79
2022-09-04T06:28:30.725Z,16.79
2022-09-04T06:29:30.738Z,16.79
2022-09-04T06:30:30.680Z,16.81
2022-09-04T06:31:30.749Z,16.83
2022-09-04T06:32:30.940Z,16.83
2022-09-04T06:33:30.658Z,16.83
2022-09-04T06:34:30.791Z,16.85
2022-09-04T06:35:30.655Z,16.93
2022-09-04T06:36:30.614Z,16.96
2022-09-04T06:37:30.621Z,16.97
2022-09-04T06:38:30.651Z,17.01
2022-09-04T06:39:30.729Z,17.01
2022-09-04T06:40:30.578Z,17.04
2022-09-04T06:41:30.555Z,17.06
2022-09-04T06:42:31.080Z,17.08
2022-09-04T06:43:30.545Z,17.11
2022-09-04T06:44:30.511Z,17.14
2022-09-04T06:45:30.504Z,17.16
2022-09-04T06:46:30.585Z,17.15
2022-09-04T06:47:30.716Z,17.16
2022-09-04T06:48:30.496Z,17.18
2022-09-04T06:49:30.472Z,17.19
2022-09-04T06:50:30.446Z,17.16
2022-09-04T06:51:32.264Z,17.18
2022-09-04T06:52:30.432Z,17.19
2022-09-04T06:53:31.435Z,17.18
2022-09-04T06:54:32.206Z,17.18
2022-09-04T06:55:30.351Z,17.21
2022-09-04T06:56:30.347Z,17.22
2022-09-04T06:57:30.441Z,17.25
2022-09-04T06:58:30.351Z,17.26
2022-09-04T06:59:31.078Z,17.28
2022-09-04T07:00:30.307Z,17.33
2022-09-04T07:01:30.427Z,17.41
2022-09-04T07:02:30.373Z,17.48
2022-09-04T07:03:30.348Z,17.54
2022-09-04T07:04:30.270Z,17.59
2022-09-04T07:05:30.245Z,17.64
2022-09-04T07:06:30.226Z,17.71
2022-09-04T07:07:30.214Z,17.74
2022-09-04T07:08:30.180Z,17.79
2022-09-04T07:09:30.188Z,17.81
2022-09-04T07:10:30.156Z,17.82
2022-09-04T07:11:30.139Z,17.87
2022-09-04T07:12:31.080Z,17.90
2022-09-04T07:13:30.131Z,17.95
2022-09-04T07:14:30.201Z,17.95
2022-09-04T07:15:30.135Z,17.95
2022-09-04T07:16:30.103Z,17.96
2022-09-04T07:17:30.065Z,17.99
2022-09-04T07:18:30.063Z,18.03
2022-09-04T07:19:30.058Z,18.05
2022-09-04T07:20:30.220Z,18.07
2022-09-04T07:21:30.381Z,18.08
2022-09-04T07:22:30.165Z,18.11
2022-09-04T07:23:40.985Z,18.15
2022-09-04T07:24:29.976Z,18.18
2022-09-04T07:25:30.000Z,18.23
2022-09-04T07:26:29.928Z,18.35
2022-09-04T07:27:29.941Z,18.41
2022-09-04T07:28:29.937Z,18.44
2022-09-04T07:29:29.909Z,18.47
2022-09-04T07:30:29.928Z,18.51
2022-09-04T07:31:29.919Z,18.55
2022-09-04T07:32:29.872Z,18.65
2022-09-04T07:33:29.874Z,18.76
2022-09-04T07:34:29.851Z,18.82
2022-09-04T07:35:29.851Z,18.84
2022-09-04T07:36:31.825Z,18.88
2022-09-04T07:37:29.791Z,18.94
2022-09-04T07:38:29.775Z,18.98
2022-09-04T07:39:29.852Z,19.02
2022-09-04T07:40:30.850Z,19.11
2022-09-04T07:41:29.758Z,19.18
2022-09-04T07:42:31.058Z,19.18
2022-09-04T07:43:29.716Z,19.28
2022-09-04T07:44:29.715Z,19.39
2022-09-04T07:45:29.704Z,19.54
2022-09-04T07:46:29.770Z,19.63
2022-09-04T07:47:29.745Z,19.66
2022-09-04T07:48:29.782Z,19.74
2022-09-04T07:49:29.635Z,19.77
2022-09-04T07:50:29.626Z,19.87
2022-09-04T07:51:29.609Z,19.95
2022-09-04T07:52:29.630Z,20.08
2022-09-04T07:53:29.704Z,20.24
2022-09-04T07:54:29.617Z,20.32
2022-09-04T07:55:29.569Z,20.42
2022-09-04T07:56:29.600Z,20.54
2022-09-04T07:57:29.999Z,20.73
2022-09-04T07:58:29.531Z,20.77
2022-09-04T07:59:29.527Z,20.88
2022-09-04T08:00:29.496Z,21.06
2022-09-04T08:01:29.557Z,21.10
2022-09-04T08:02:29.464Z,21.10
2022-09-04T08:03:30.138Z,21.16
2022-09-04T08:04:29.469Z,21.09
2022-09-04T08:05:29.438Z,21.14
2022-09-04T08:06:29.849Z,21.17
2022-09-04T08:07:29.409Z,21.25
2022-09-04T08:08:29.370Z,21.19
2022-09-04T08:09:29.428Z,21.12
2022-09-04T08:10:29.387Z,21.19
2022-09-04T08:11:29.381Z,21.31
2022-09-04T08:12:29.339Z,21.32
2022-09-04T08:13:29.368Z,21.35
2022-09-04T08:14:29.805Z,21.44
2022-09-04T08:15:29.374Z,21.53
2022-09-04T08:16:29.303Z,21.65
2022-09-04T08:17:29.269Z,21.84
2022-09-04T08:18:29.254Z,21.98
2022-09-04T08:19:29.238Z,22.00
2022-09-04T08:20:29.243Z,22.10
2022-09-04T08:21:29.236Z,22.22
2022-09-04T08:22:29.214Z,22.42
2022-09-04T08:23:29.223Z,22.60
2022-09-04T08:24:29.181Z,22.57
2022-09-04T08:25:29.211Z,22.76
2022-09-04T08:26:29.179Z,22.79
2022-09-04T08:27:29.145Z,22.70
2022-09-04T08:28:29.166Z,22.75
2022-09-04T08:29:29.155Z,22.72
2022-09-04T08:30:29.094Z,22.67
2022-09-04T08:31:29.228Z,22.65
2022-09-04T08:32:36.727Z,22.65
2022-09-04T08:33:29.073Z,22.65
2022-09-04T08:34:29.038Z,22.51
2022-09-04T08:35:29.087Z,22.55
2022-09-04T08:36:29.152Z,22.68
2022-09-04T08:37:29.021Z,22.83
2022-09-04T08:38:28.996Z,22.94
2022-09-04T08:39:29.009Z,23.04
2022-09-04T08:40:28.987Z,23.19
2022-09-04T08:41:28.968Z,23.27
2022-09-04T08:42:29.077Z,23.42
2022-09-04T08:43:28.932Z,23.50
2022-09-04T08:44:28.938Z,23.69
2022-09-04T08:45:28.961Z,23.85
2022-09-04T08:46:29.195Z,24.02
2022-09-04T08:47:28.899Z,24.05
2022-09-04T08:48:28.845Z,24.12
2022-09-04T08:49:28.865Z,24.05
2022-09-04T08:50:28.862Z,23.94
2022-09-04T08:51:28.874Z,23.73
2022-09-04T08:52:28.842Z,23.63
2022-09-04T08:53:28.807Z,23.60
2022-09-04T08:54:28.799Z,23.68
2022-09-04T08:55:28.868Z,23.79
2022-09-04T08:56:28.755Z,23.91
2022-09-04T08:57:28.752Z,23.84
2022-09-04T08:58:28.751Z,23.79
2022-09-04T08:59:28.728Z,23.66
2022-09-04T09:00:28.742Z,23.43
2022-09-04T09:01:28.947Z,23.36
2022-09-04T09:02:28.736Z,23.28
2022-09-04T09:03:28.689Z,23.36
2022-09-04T09:04:28.807Z,23.51
2022-09-04T09:05:28.696Z,23.68
2022-09-04T09:06:28.668Z,23.93
2022-09-04T09:07:28.628Z,24.12
2022-09-04T09:08:31.640Z,24.13
2022-09-04T09:09:28.650Z,24.10
2022-09-04T09:10:28.580Z,24.22
2022-09-04T09:11:28.555Z,24.21
2022-09-04T09:12:40.292Z,24.16
2022-09-04T09:13:28.566Z,24.18
2022-09-04T09:14:28.509Z,24.10
2022-09-04T09:15:28.498Z,24.10
2022-09-04T09:16:28.614Z,24.05
2022-09-04T09:17:34.514Z,23.94
2022-09-04T09:18:28.509Z,23.75
2022-09-04T09:19:28.464Z,23.60
2022-09-04T09:20:28.509Z,23.63
2022-09-04T09:21:28.435Z,23.72
2022-09-04T09:22:28.429Z,23.91
2022-09-04T09:23:28.519Z,24.13
2022-09-04T09:24:28.376Z,24.40
2022-09-04T09:25:29.210Z,24.50
2022-09-04T09:26:28.378Z,24.55
2022-09-04T09:27:28.359Z,24.45
2022-09-04T09:28:28.370Z,24.45
2022-09-04T09:29:28.330Z,24.37
2022-09-04T09:30:28.409Z,24.40
2022-09-04T09:31:28.294Z,24.39
2022-09-04T09:32:28.298Z,24.20
2022-09-04T09:33:28.656Z,24.15
2022-09-04T09:34:28.248Z,24.20
2022-09-04T09:35:28.291Z,24.25
2022-09-04T09:36:28.230Z,24.40
2022-09-04T09:37:28.281Z,24.53
2022-09-04T09:38:29.154Z,24.73
2022-09-04T09:39:28.381Z,24.95
2022-09-04T09:40:28.180Z,25.21
2022-09-04T09:41:28.167Z,25.39
2022-09-04T09:42:28.193Z,25.40
2022-09-04T09:43:28.177Z,25.45
2022-09-04T09:44:28.152Z,25.55
2022-09-04T09:45:28.113Z,25.42
2022-09-04T09:46:28.228Z,25.20
2022-09-04T09:47:28.131Z,25.14
2022-09-04T09:48:28.102Z,25.17
2022-09-04T09:49:28.146Z,25.15
2022-09-04T09:50:28.060Z,25.10
2022-09-04T09:51:28.035Z,25.09
2022-09-04T09:52:28.068Z,25.21
2022-09-04T09:53:28.048Z,25.25
2022-09-04T09:54:27.992Z,25.35
2022-09-04T09:55:28.033Z,25.43
2022-09-04T09:56:27.997Z,25.54
2022-09-04T09:57:33.489Z,25.52
2022-09-04T09:58:27.971Z,25.58
2022-09-04T09:59:27.958Z,25.72
2022-09-04T10:00:28.975Z,25.70
2022-09-04T10:01:28.027Z,25.40
2022-09-04T10:02:27.927Z,25.03
2022-09-04T10:03:27.930Z,24.87
2022-09-04T10:04:27.896Z,24.95
2022-09-04T10:05:27.884Z,25.13
2022-09-04T10:06:27.844Z,25.33
2022-09-04T10:07:27.961Z,25.58
2022-09-04T10:08:35.784Z,25.82
2022-09-04T10:09:28.307Z,26.15
2022-09-04T10:10:27.803Z,26.26
2022-09-04T10:11:28.185Z,26.20
2022-09-04T10:12:27.754Z,26.23
2022-09-04T10:13:27.754Z,26.28
2022-09-04T10:14:27.760Z,26.44
2022-09-04T10:15:27.743Z,26.66
2022-09-04T10:16:27.787Z,26.82
2022-09-04T10:17:27.703Z,26.92
2022-09-04T10:18:27.696Z,26.97
2022-09-04T10:19:27.731Z,26.99
2022-09-04T10:20:27.670Z,27.13
2022-09-04T10:21:27.670Z,27.19
2022-09-04T10:22:27.663Z,27.21
2022-09-04T10:23:27.628Z,27.24
2022-09-04T10:24:27.622Z,27.27
2022-09-04T10:25:27.594Z,27.28
2022-09-04T10:26:29.197Z,27.24
2022-09-04T10:27:27.564Z,27.14
2022-09-04T10:28:28.356Z,26.95
2022-09-04T10:29:27.585Z,26.55
2022-09-04T10:30:27.622Z,26.40
2022-09-04T10:31:27.525Z,26.26
2022-09-04T10:32:27.498Z,26.13
2022-09-04T10:33:27.703Z,26.15
2022-09-04T10:34:27.524Z,26.20
2022-09-04T10:35:27.466Z,26.29
2022-09-04T10:36:27.455Z,26.35
2022-09-04T10:37:27.449Z,26.28
2022-09-04T10:38:27.433Z,26.26
2022-09-04T10:39:27.456Z,26.26
2022-09-04T10:40:27.443Z,26.17
2022-09-04T10:41:27.395Z,26.17
2022-09-04T10:42:27.374Z,26.21
2022-09-04T10:43:27.349Z,26.28
2022-09-04T10:44:27.378Z,26.32
2022-09-04T10:45:27.480Z,26.39
2022-09-04T10:46:27.453Z,26.37
2022-09-04T10:47:27.302Z,26.26
2022-09-04T10:48:28.781Z,26.20
2022-09-04T10:49:27.285Z,26.15
2022-09-04T10:50:27.310Z,26.09
2022-09-04T10:51:27.269Z,25.90
2022-09-04T10:52:27.859Z,25.90
2022-09-04T10:53:27.263Z,25.91
2022-09-04T10:54:27.236Z,25.97
2022-09-04T10:55:27.269Z,26.02
2022-09-04T10:56:27.234Z,26.10
2022-09-04T10:57:27.192Z,26.20
2022-09-04T10:58:27.157Z,26.26
2022-09-04T10:59:27.227Z,26.32
2022-09-04T11:00:27.756Z,26.39
2022-09-04T11:01:27.181Z,26.43
2022-09-04T11:02:27.195Z,26.43
2022-09-04T11:03:27.126Z,26.33
2022-09-04T11:04:27.391Z,26.17
2022-09-04T11:05:27.094Z,25.91
2022-09-04T11:06:27.286Z,25.64
2022-09-04T11:07:28.815Z,25.51
2022-09-04T11:08:27.065Z,25.42
2022-09-04T11:09:28.023Z,25.38
2022-09-04T11:10:27.023Z,25.39
2022-09-04T11:11:26.989Z,25.32
2022-09-04T11:12:26.974Z,25.18
2022-09-04T11:13:27.101Z,25.06
2022-09-04T11:14:26.976Z,24.99
2022-09-04T11:15:27.013Z,24.93
2022-09-04T11:16:27.010Z,24.91
2022-09-04T11:17:26.914Z,24.95
2022-09-04T11:18:26.910Z,25.03
2022-09-04T11:19:26.930Z,25.18
2022-09-04T11:20:26.884Z,25.28
2022-09-04T11:21:26.866Z,25.40
2022-09-04T11:22:26.866Z,25.40
2022-09-04T11:23:27.166Z,25.47
2022-09-04T11:24:26.873Z,25.50
2022-09-04T11:25:27.114Z,25.36
2022-09-04T11:26:26.840Z,25.28
2022-09-04T11:27:27.091Z,25.39
2022-09-04T11:28:26.816Z,25.50
2022-09-04T11:29:26.782Z,25.62
2022-09-04T11:30:26.781Z,25.77
2022-09-04T11:31:26.794Z,25.92
2022-09-04T11:32:26.754Z,25.94
2022-09-04T11:33:26.787Z,25.99
2022-09-04T11:34:26.711Z,25.95
2022-09-04T11:35:26.728Z,25.76
2022-09-04T11:36:26.693Z,25.62
2022-09-04T11:37:26.689Z,25.62
2022-09-04T11:38:26.661Z,25.51
2022-09-04T11:39:26.672Z,25.35
2022-09-04T11:40:26.726Z,25.27
2022-09-04T11:41:26.806Z,25.21
2022-09-04T11:42:26.603Z,25.09
2022-09-04T11:43:27.016Z,24.99
2022-09-04T11:44:26.767Z,24.99
2022-09-04T11:45:26.637Z,25.08
2022-09-04T11:46:26.571Z,25.20
2022-09-04T11:47:26.527Z,25.28
2022-09-04T11:48:26.507Z,25.24
2022-09-04T11:49:26.670Z,25.14
2022-09-04T11:50:26.559Z,25.06
2022-09-04T11:51:26.520Z,24.98
2022-09-04T11:52:26.495Z,24.87
2022-09-04T11:53:26.469Z,24.77
2022-09-04T11:54:26.436Z,24.83
2022-09-04T11:55:26.448Z,24.96
2022-09-04T11:56:26.464Z,25.13
2022-09-04T11:57:26.435Z,25.24
2022-09-04T11:58:26.452Z,25.40
2022-09-04T11:59:26.537Z,25.58
2022-09-04T12:00:26.380Z,25.77
2022-09-04T12:01:26.411Z,25.85
2022-09-04T12:02:26.469Z,25.95
2022-09-04T12:03:26.381Z,26.06
2022-09-04T12:04:26.324Z,26.13
2022-09-04T12:05:26.320Z,26.20
2022-09-04T12:06:26.286Z,26.32
2022-09-04T12:07:26.358Z,26.43
2022-09-04T12:08:26.295Z,26.44
2022-09-04T12:09:26.313Z,26.45
2022-09-04T12:10:28.507Z,26.43
2022-09-04T12:11:26.259Z,26.50
2022-09-04T12:12:26.224Z,26.50
2022-09-04T12:13:26.270Z,26.51
2022-09-04T12:14:26.193Z,26.51
2022-09-04T12:15:26.216Z,26.47
2022-09-04T12:16:26.273Z,26.43
2022-09-04T12:17:26.211Z,26.43
2022-09-04T12:18:26.152Z,26.43
2022-09-04T12:19:26.152Z,26.40
2022-09-04T12:20:26.115Z,26.47
2022-09-04T12:21:26.445Z,26.55
2022-09-04T12:22:26.085Z,26.65
2022-09-04T12:23:26.275Z,26.70
2022-09-04T12:24:26.312Z,26.76
2022-09-04T12:25:26.094Z,26.81
2022-09-04T12:26:26.033Z,26.84
2022-09-04T12:27:26.168Z,26.87
2022-09-04T12:28:26.033Z,26.91
2022-09-04T12:29:25.999Z,26.99
2022-09-04T12:30:25.963Z,27.03
2022-09-04T12:31:26.344Z,27.04
2022-09-04T12:32:25.966Z,27.07
2022-09-04T12:33:26.079Z,27.07
2022-09-04T12:34:25.915Z,27.06
2022-09-04T12:35:31.170Z,27.04
2022-09-04T12:36:25.909Z,27.02
2022-09-04T12:37:25.911Z,26.97
2022-09-04T12:38:25.890Z,26.99
2022-09-04T12:39:25.952Z,26.97
2022-09-04T12:40:25.840Z,26.94
2022-09-04T12:41:25.922Z,26.91
2022-09-04T12:42:26.512Z,26.88
2022-09-04T12:43:26.264Z,26.88
2022-09-04T12:44:25.905Z,26.89
2022-09-04T12:45:25.841Z,26.87
2022-09-04T12:46:25.750Z,26.85
2022-09-04T12:47:25.787Z,26.87
2022-09-04T12:48:26.004Z,26.88
2022-09-04T12:49:25.718Z,26.91
2022-09-04T12:50:25.737Z,26.91
2022-09-04T12:51:25.732Z,26.88
2022-09-04T12:52:25.759Z,26.85